sensor_id;sensor_type;location;lat;lon;timestamp;temperature;humidity
28336;DHT22;15592;53.656;7.276;2023-03-14T00:02:03;10.10;99.90
28336;DHT22;15592;53.656;7.276;2023-03-14T00:04:28;10.10;99.90
28336;DHT22;15592;53.656;7.276;2023-03-14T00:06:54;10.10;99.90
28336;DHT22;15592;53.656;7.276;2023-03-14T00:09:19;10.10;99.90
28336;DHT22;15592;53.656;7.276;2023-03-14T00:11:45;10.10;99.90
28336;DHT22;15592;53.656;7.276;2023-03-14T00:14:11;10.20;99.90
28336;DHT22;15592;53.656;7.276;2023-03-14T00:16:37;10.10;99.90
28336;DHT22;15592;53.656;7.276;2023-03-14T00:19:02;10.10;99.90
28336;DHT22;15592;53.656;7.276;2023-03-14T00:21:28;10.10;99.90
28336;DHT22;15592;53.656;7.276;2023-03-14T00:23:53;10.10;99.90
28336;DHT22;15592;53.656;7.276;2023-03-14T00:26:20;10.10;99.90
28336;DHT22;15592;53.656;7.276;2023-03-14T00:28:46;10.10;99.90
28336;DHT22;15592;53.656;7.276;2023-03-14T00:31:14;10.10;99.90
28336;DHT22;15592;53.656;7.276;2023-03-14T00:33:41;10.10;99.90
28336;DHT22;15592;53.656;7.276;2023-03-14T00:36:12;10.10;99.90
28336;DHT22;15592;53.656;7.276;2023-03-14T00:38:38;10.10;99.90
28336;DHT22;15592;53.656;7.276;2023-03-14T00:41:13;10.10;99.90
28336;DHT22;15592;53.656;7.276;2023-03-14T00:43:39;10.10;99.90
28336;DHT22;15592;53.656;7.276;2023-03-14T00:46:05;10.10;99.90
28336;DHT22;15592;53.656;7.276;2023-03-14T00:48:30;10.00;99.90
28336;DHT22;15592;53.656;7.276;2023-03-14T00:50:56;10.00;99.90
28336;DHT22;15592;53.656;7.276;2023-03-14T00:53:22;10.00;99.90
28336;DHT22;15592;53.656;7.276;2023-03-14T00:55:48;9.90;99.90
28336;DHT22;15592;53.656;7.276;2023-03-14T00:58:16;9.90;99.90
28336;DHT22;15592;53.656;7.276;2023-03-14T01:00:42;9.90;99.90
28336;DHT22;15592;53.656;7.276;2023-03-14T01:03:09;9.90;99.90
28336;DHT22;15592;53.656;7.276;2023-03-14T01:05:35;9.80;99.90
28336;DHT22;15592;53.656;7.276;2023-03-14T01:08:01;9.90;99.90
28336;DHT22;15592;53.656;7.276;2023-03-14T01:10:27;10.00;99.90
28336;DHT22;15592;53.656;7.276;2023-03-14T01:12:52;9.90;99.90
28336;DHT22;15592;53.656;7.276;2023-03-14T01:15:18;9.90;99.90
28336;DHT22;15592;53.656;7.276;2023-03-14T01:17:43;9.90;99.90
28336;DHT22;15592;53.656;7.276;2023-03-14T01:20:11;9.90;99.90
28336;DHT22;15592;53.656;7.276;2023-03-14T01:22:38;9.90;99.90
28336;DHT22;15592;53.656;7.276;2023-03-14T01:25:06;9.80;99.90
28336;DHT22;15592;53.656;7.276;2023-03-14T01:27:32;9.80;99.90
28336;DHT22;15592;53.656;7.276;2023-03-14T01:29:58;9.70;99.90
28336;DHT22;15592;53.656;7.276;2023-03-14T01:32:24;9.60;99.90
28336;DHT22;15592;53.656;7.276;2023-03-14T01:34:50;9.70;99.90
28336;DHT22;15592;53.656;7.276;2023-03-14T01:37:16;9.70;99.90
28336;DHT22;15592;53.656;7.276;2023-03-14T01:39:42;9.70;99.90
28336;DHT22;15592;53.656;7.276;2023-03-14T01:42:07;9.80;99.90
28336;DHT22;15592;53.656;7.276;2023-03-14T01:47:14;9.90;99.90
28336;DHT22;15592;53.656;7.276;2023-03-14T01:49:39;9.80;99.90
28336;DHT22;15592;53.656;7.276;2023-03-14T01:52:25;9.80;99.90
28336;DHT22;15592;53.656;7.276;2023-03-14T01:55:05;9.70;99.90
28336;DHT22;15592;53.656;7.276;2023-03-14T01:57:47;9.70;99.90
28336;DHT22;15592;53.656;7.276;2023-03-14T02:00:17;9.80;99.90
28336;DHT22;15592;53.656;7.276;2023-03-14T02:02:46;9.80;99.90
28336;DHT22;15592;53.656;7.276;2023-03-14T02:05:15;9.80;99.90
28336;DHT22;15592;53.656;7.276;2023-03-14T02:10:10;9.90;99.90
28336;DHT22;15592;53.656;7.276;2023-03-14T02:12:36;9.90;99.90
28336;DHT22;15592;53.656;7.276;2023-03-14T02:15:03;9.90;99.90
28336;DHT22;15592;53.656;7.276;2023-03-14T02:17:28;9.90;99.90
28336;DHT22;15592;53.656;7.276;2023-03-14T02:20:35;9.90;99.90
28336;DHT22;15592;53.656;7.276;2023-03-14T02:23:00;9.90;99.90
28336;DHT22;15592;53.656;7.276;2023-03-14T02:28:19;10.00;99.90
28336;DHT22;15592;53.656;7.276;2023-03-14T02:30:46;10.00;99.90
28336;DHT22;15592;53.656;7.276;2023-03-14T02:33:15;10.00;99.90
28336;DHT22;15592;53.656;7.276;2023-03-14T02:35:55;10.00;99.90
28336;DHT22;15592;53.656;7.276;2023-03-14T02:41:01;10.00;99.90
28336;DHT22;15592;53.656;7.276;2023-03-14T02:43:26;10.00;99.90
28336;DHT22;15592;53.656;7.276;2023-03-14T02:45:52;10.00;99.90
28336;DHT22;15592;53.656;7.276;2023-03-14T02:48:28;9.90;99.90
28336;DHT22;15592;53.656;7.276;2023-03-14T02:50:57;10.00;99.90
28336;DHT22;15592;53.656;7.276;2023-03-14T02:53:28;9.90;99.90
28336;DHT22;15592;53.656;7.276;2023-03-14T02:55:55;9.90;99.90
28336;DHT22;15592;53.656;7.276;2023-03-14T02:58:21;9.90;99.90
28336;DHT22;15592;53.656;7.276;2023-03-14T03:00:46;9.90;99.90
28336;DHT22;15592;53.656;7.276;2023-03-14T03:03:12;9.90;99.90
28336;DHT22;15592;53.656;7.276;2023-03-14T03:05:38;9.80;99.90
28336;DHT22;15592;53.656;7.276;2023-03-14T03:08:04;9.80;99.90
28336;DHT22;15592;53.656;7.276;2023-03-14T03:10:30;9.80;99.90
28336;DHT22;15592;53.656;7.276;2023-03-14T03:12:56;9.80;99.90
28336;DHT22;15592;53.656;7.276;2023-03-14T03:15:22;9.80;99.90
28336;DHT22;15592;53.656;7.276;2023-03-14T03:17:47;9.70;99.90
28336;DHT22;15592;53.656;7.276;2023-03-14T03:20:13;9.70;99.90
28336;DHT22;15592;53.656;7.276;2023-03-14T03:22:39;9.70;99.90
28336;DHT22;15592;53.656;7.276;2023-03-14T03:25:06;9.70;99.90
28336;DHT22;15592;53.656;7.276;2023-03-14T03:27:33;9.60;99.90
28336;DHT22;15592;53.656;7.276;2023-03-14T03:29:59;9.60;99.90
28336;DHT22;15592;53.656;7.276;2023-03-14T03:32:25;9.60;99.90
28336;DHT22;15592;53.656;7.276;2023-03-14T03:34:51;9.50;99.90
28336;DHT22;15592;53.656;7.276;2023-03-14T03:37:17;9.50;99.90
28336;DHT22;15592;53.656;7.276;2023-03-14T03:39:43;9.50;99.90
28336;DHT22;15592;53.656;7.276;2023-03-14T03:42:08;9.50;99.90
28336;DHT22;15592;53.656;7.276;2023-03-14T03:44:35;9.50;99.90
28336;DHT22;15592;53.656;7.276;2023-03-14T03:47:00;9.40;99.90
28336;DHT22;15592;53.656;7.276;2023-03-14T03:49:30;9.40;99.90
28336;DHT22;15592;53.656;7.276;2023-03-14T03:51:56;9.40;99.90
28336;DHT22;15592;53.656;7.276;2023-03-14T03:54:22;9.40;99.90
28336;DHT22;15592;53.656;7.276;2023-03-14T03:56:47;9.30;99.90
28336;DHT22;15592;53.656;7.276;2023-03-14T03:59:13;9.30;99.90
28336;DHT22;15592;53.656;7.276;2023-03-14T04:01:38;9.30;99.90
28336;DHT22;15592;53.656;7.276;2023-03-14T04:04:04;9.20;99.90
28336;DHT22;15592;53.656;7.276;2023-03-14T04:06:30;9.20;99.90
28336;DHT22;15592;53.656;7.276;2023-03-14T04:08:55;9.20;99.90
28336;DHT22;15592;53.656;7.276;2023-03-14T04:11:21;9.10;99.90
28336;DHT22;15592;53.656;7.276;2023-03-14T04:13:46;9.10;99.90
28336;DHT22;15592;53.656;7.276;2023-03-14T04:16:19;9.00;99.90
28336;DHT22;15592;53.656;7.276;2023-03-14T04:18:45;9.00;99.90
28336;DHT22;15592;53.656;7.276;2023-03-14T04:21:11;9.00;99.90
28336;DHT22;15592;53.656;7.276;2023-03-14T04:23:36;9.00;99.90
28336;DHT22;15592;53.656;7.276;2023-03-14T04:26:02;9.00;99.90
28336;DHT22;15592;53.656;7.276;2023-03-14T04:28:28;9.00;99.90
28336;DHT22;15592;53.656;7.276;2023-03-14T04:30:53;8.90;99.90
28336;DHT22;15592;53.656;7.276;2023-03-14T04:33:19;8.90;99.90
28336;DHT22;15592;53.656;7.276;2023-03-14T04:35:45;8.90;99.90
28336;DHT22;15592;53.656;7.276;2023-03-14T04:38:11;8.90;99.90
28336;DHT22;15592;53.656;7.276;2023-03-14T04:40:38;8.90;99.90
28336;DHT22;15592;53.656;7.276;2023-03-14T04:45:31;8.90;99.90
28336;DHT22;15592;53.656;7.276;2023-03-14T04:47:56;8.80;99.90
28336;DHT22;15592;53.656;7.276;2023-03-14T04:50:22;8.80;99.90
28336;DHT22;15592;53.656;7.276;2023-03-14T04:52:48;8.80;99.90
28336;DHT22;15592;53.656;7.276;2023-03-14T04:55:13;8.80;99.90
28336;DHT22;15592;53.656;7.276;2023-03-14T04:57:39;8.80;99.90
28336;DHT22;15592;53.656;7.276;2023-03-14T05:00:05;8.80;99.90
28336;DHT22;15592;53.656;7.276;2023-03-14T05:02:34;8.80;99.90
28336;DHT22;15592;53.656;7.276;2023-03-14T05:05:00;8.80;99.90
28336;DHT22;15592;53.656;7.276;2023-03-14T05:07:26;8.80;99.90
28336;DHT22;15592;53.656;7.276;2023-03-14T05:09:51;8.80;99.90
28336;DHT22;15592;53.656;7.276;2023-03-14T05:12:19;8.80;99.90
28336;DHT22;15592;53.656;7.276;2023-03-14T05:14:44;8.80;99.90
28336;DHT22;15592;53.656;7.276;2023-03-14T05:17:10;8.80;99.90
28336;DHT22;15592;53.656;7.276;2023-03-14T05:19:36;8.80;99.90
28336;DHT22;15592;53.656;7.276;2023-03-14T05:22:02;8.80;99.90
28336;DHT22;15592;53.656;7.276;2023-03-14T05:24:28;8.80;99.90
28336;DHT22;15592;53.656;7.276;2023-03-14T05:26:54;8.80;99.90
28336;DHT22;15592;53.656;7.276;2023-03-14T05:29:19;8.80;99.90
28336;DHT22;15592;53.656;7.276;2023-03-14T05:31:45;8.80;99.90
28336;DHT22;15592;53.656;7.276;2023-03-14T05:34:10;8.80;99.90
28336;DHT22;15592;53.656;7.276;2023-03-14T05:36:36;8.80;99.90
28336;DHT22;15592;53.656;7.276;2023-03-14T05:39:02;8.80;99.90
28336;DHT22;15592;53.656;7.276;2023-03-14T05:41:27;8.80;99.90
28336;DHT22;15592;53.656;7.276;2023-03-14T05:43:54;8.80;99.90
28336;DHT22;15592;53.656;7.276;2023-03-14T05:46:20;8.80;99.90
28336;DHT22;15592;53.656;7.276;2023-03-14T05:48:45;8.80;99.90
28336;DHT22;15592;53.656;7.276;2023-03-14T05:51:11;8.80;99.90
28336;DHT22;15592;53.656;7.276;2023-03-14T05:53:36;8.80;99.90
28336;DHT22;15592;53.656;7.276;2023-03-14T05:56:02;8.80;99.90
28336;DHT22;15592;53.656;7.276;2023-03-14T05:58:27;8.70;99.90
28336;DHT22;15592;53.656;7.276;2023-03-14T06:00:53;8.70;99.90
28336;DHT22;15592;53.656;7.276;2023-03-14T06:03:19;8.70;99.90
28336;DHT22;15592;53.656;7.276;2023-03-14T06:05:44;8.70;99.90
28336;DHT22;15592;53.656;7.276;2023-03-14T06:08:10;8.70;99.90
28336;DHT22;15592;53.656;7.276;2023-03-14T06:10:36;8.70;99.90
28336;DHT22;15592;53.656;7.276;2023-03-14T06:13:02;8.70;99.90
28336;DHT22;15592;53.656;7.276;2023-03-14T06:15:28;8.70;99.90
28336;DHT22;15592;53.656;7.276;2023-03-14T06:17:55;8.70;99.90
28336;DHT22;15592;53.656;7.276;2023-03-14T06:20:21;8.70;99.90
28336;DHT22;15592;53.656;7.276;2023-03-14T06:22:46;8.70;99.90
28336;DHT22;15592;53.656;7.276;2023-03-14T06:25:12;8.70;99.90
28336;DHT22;15592;53.656;7.276;2023-03-14T06:27:37;8.70;99.90
28336;DHT22;15592;53.656;7.276;2023-03-14T06:30:04;8.70;99.90
28336;DHT22;15592;53.656;7.276;2023-03-14T06:32:31;8.70;99.90
28336;DHT22;15592;53.656;7.276;2023-03-14T06:34:56;8.70;99.90
28336;DHT22;15592;53.656;7.276;2023-03-14T06:37:27;8.70;99.90
28336;DHT22;15592;53.656;7.276;2023-03-14T06:39:53;8.70;99.90
28336;DHT22;15592;53.656;7.276;2023-03-14T06:42:18;8.60;99.90
28336;DHT22;15592;53.656;7.276;2023-03-14T06:44:44;7.30;99.90
28336;DHT22;15592;53.656;7.276;2023-03-14T06:47:09;7.00;99.90
28336;DHT22;15592;53.656;7.276;2023-03-14T06:49:35;6.10;99.90
28336;DHT22;15592;53.656;7.276;2023-03-14T06:54:26;5.60;99.90
28336;DHT22;15592;53.656;7.276;2023-03-14T06:56:52;5.60;99.90
28336;DHT22;15592;53.656;7.276;2023-03-14T06:59:18;5.40;99.90
28336;DHT22;15592;53.656;7.276;2023-03-14T07:01:43;5.10;99.90
28336;DHT22;15592;53.656;7.276;2023-03-14T07:04:09;4.80;99.90
28336;DHT22;15592;53.656;7.276;2023-03-14T07:06:35;4.80;99.90
28336;DHT22;15592;53.656;7.276;2023-03-14T07:09:01;4.50;99.90
28336;DHT22;15592;53.656;7.276;2023-03-14T07:11:27;4.40;99.90
28336;DHT22;15592;53.656;7.276;2023-03-14T07:13:52;4.30;99.90
28336;DHT22;15592;53.656;7.276;2023-03-14T07:16:18;4.00;99.90
28336;DHT22;15592;53.656;7.276;2023-03-14T07:18:44;3.90;99.90
28336;DHT22;15592;53.656;7.276;2023-03-14T07:21:09;3.60;99.90
28336;DHT22;15592;53.656;7.276;2023-03-14T07:23:35;3.60;99.90
28336;DHT22;15592;53.656;7.276;2023-03-14T07:26:01;3.30;99.90
28336;DHT22;15592;53.656;7.276;2023-03-14T07:28:27;3.20;99.90
28336;DHT22;15592;53.656;7.276;2023-03-14T07:30:53;3.20;99.90
28336;DHT22;15592;53.656;7.276;2023-03-14T07:33:19;3.10;99.90
28336;DHT22;15592;53.656;7.276;2023-03-14T07:35:47;3.00;99.90
28336;DHT22;15592;53.656;7.276;2023-03-14T07:38:13;3.00;99.90
28336;DHT22;15592;53.656;7.276;2023-03-14T07:40:39;2.90;99.90
28336;DHT22;15592;53.656;7.276;2023-03-14T07:43:05;3.00;99.90
28336;DHT22;15592;53.656;7.276;2023-03-14T07:47:57;3.20;99.90
28336;DHT22;15592;53.656;7.276;2023-03-14T07:50:26;3.20;99.90
28336;DHT22;15592;53.656;7.276;2023-03-14T07:52:53;3.30;99.90
28336;DHT22;15592;53.656;7.276;2023-03-14T07:55:18;3.40;99.90
28336;DHT22;15592;53.656;7.276;2023-03-14T07:57:44;3.50;99.90
28336;DHT22;15592;53.656;7.276;2023-03-14T08:00:10;3.40;99.90
28336;DHT22;15592;53.656;7.276;2023-03-14T08:02:36;3.40;99.90
28336;DHT22;15592;53.656;7.276;2023-03-14T08:05:03;3.50;99.90
28336;DHT22;15592;53.656;7.276;2023-03-14T08:07:29;3.50;99.90
28336;DHT22;15592;53.656;7.276;2023-03-14T08:09:54;3.50;99.90
28336;DHT22;15592;53.656;7.276;2023-03-14T08:12:20;3.50;99.90
28336;DHT22;15592;53.656;7.276;2023-03-14T08:14:46;3.50;99.90
28336;DHT22;15592;53.656;7.276;2023-03-14T08:17:11;3.50;99.90
28336;DHT22;15592;53.656;7.276;2023-03-14T08:19:37;3.60;99.90
28336;DHT22;15592;53.656;7.276;2023-03-14T08:22:03;3.60;99.90
28336;DHT22;15592;53.656;7.276;2023-03-14T08:24:28;3.60;99.90
28336;DHT22;15592;53.656;7.276;2023-03-14T08:26:54;3.60;99.90
28336;DHT22;15592;53.656;7.276;2023-03-14T08:29:19;3.70;99.90
28336;DHT22;15592;53.656;7.276;2023-03-14T08:31:45;3.70;99.90
28336;DHT22;15592;53.656;7.276;2023-03-14T08:34:11;3.70;99.90
28336;DHT22;15592;53.656;7.276;2023-03-14T08:36:36;3.70;99.90
28336;DHT22;15592;53.656;7.276;2023-03-14T08:39:02;3.80;99.90
28336;DHT22;15592;53.656;7.276;2023-03-14T08:41:29;3.90;99.90
28336;DHT22;15592;53.656;7.276;2023-03-14T08:43:55;3.90;99.90
28336;DHT22;15592;53.656;7.276;2023-03-14T08:48:47;3.90;99.90
28336;DHT22;15592;53.656;7.276;2023-03-14T08:51:13;4.00;99.90
28336;DHT22;15592;53.656;7.276;2023-03-14T08:53:40;4.00;99.90
28336;DHT22;15592;53.656;7.276;2023-03-14T08:58:32;4.00;99.90
28336;DHT22;15592;53.656;7.276;2023-03-14T09:00:58;4.10;99.90
28336;DHT22;15592;53.656;7.276;2023-03-14T09:03:25;4.20;99.90
28336;DHT22;15592;53.656;7.276;2023-03-14T09:05:51;4.10;99.90
28336;DHT22;15592;53.656;7.276;2023-03-14T09:08:17;4.10;99.90
28336;DHT22;15592;53.656;7.276;2023-03-14T09:10:43;4.10;99.90
28336;DHT22;15592;53.656;7.276;2023-03-14T09:13:08;4.10;99.90
28336;DHT22;15592;53.656;7.276;2023-03-14T09:15:34;4.40;99.90
28336;DHT22;15592;53.656;7.276;2023-03-14T09:17:59;4.40;99.90
28336;DHT22;15592;53.656;7.276;2023-03-14T09:20:25;4.40;99.90
28336;DHT22;15592;53.656;7.276;2023-03-14T09:22:51;4.40;99.90
28336;DHT22;15592;53.656;7.276;2023-03-14T09:25:16;4.40;99.90
28336;DHT22;15592;53.656;7.276;2023-03-14T09:27:42;4.50;99.90
28336;DHT22;15592;53.656;7.276;2023-03-14T09:30:09;4.50;99.90
28336;DHT22;15592;53.656;7.276;2023-03-14T09:32:34;4.60;99.90
28336;DHT22;15592;53.656;7.276;2023-03-14T09:35:00;4.60;99.90
28336;DHT22;15592;53.656;7.276;2023-03-14T09:37:26;4.70;99.90
28336;DHT22;15592;53.656;7.276;2023-03-14T09:39:51;4.70;99.90
28336;DHT22;15592;53.656;7.276;2023-03-14T09:42:19;4.70;99.90
28336;DHT22;15592;53.656;7.276;2023-03-14T09:44:59;4.70;99.90
28336;DHT22;15592;53.656;7.276;2023-03-14T09:47:26;4.60;99.90
28336;DHT22;15592;53.656;7.276;2023-03-14T09:49:52;4.70;99.90
28336;DHT22;15592;53.656;7.276;2023-03-14T09:52:26;4.60;99.90
28336;DHT22;15592;53.656;7.276;2023-03-14T09:54:58;4.70;99.90
28336;DHT22;15592;53.656;7.276;2023-03-14T09:57:26;4.30;99.90
28336;DHT22;15592;53.656;7.276;2023-03-14T09:59:56;4.20;99.90
28336;DHT22;15592;53.656;7.276;2023-03-14T10:02:23;4.10;99.90
28336;DHT22;15592;53.656;7.276;2023-03-14T10:04:50;4.00;99.90
28336;DHT22;15592;53.656;7.276;2023-03-14T10:07:19;4.10;99.90
28336;DHT22;15592;53.656;7.276;2023-03-14T10:09:50;4.10;99.90
28336;DHT22;15592;53.656;7.276;2023-03-14T10:12:17;4.00;99.90
28336;DHT22;15592;53.656;7.276;2023-03-14T10:14:50;3.90;99.90
28336;DHT22;15592;53.656;7.276;2023-03-14T10:17:17;3.80;99.90
28336;DHT22;15592;53.656;7.276;2023-03-14T10:19:59;3.80;99.90
28336;DHT22;15592;53.656;7.276;2023-03-14T10:22:29;4.00;99.90
28336;DHT22;15592;53.656;7.276;2023-03-14T10:24:59;4.10;99.90
28336;DHT22;15592;53.656;7.276;2023-03-14T10:27:35;4.30;99.90
28336;DHT22;15592;53.656;7.276;2023-03-14T10:30:07;4.50;99.90
28336;DHT22;15592;53.656;7.276;2023-03-14T10:32:45;4.40;99.90
28336;DHT22;15592;53.656;7.276;2023-03-14T10:38:00;4.60;99.90
28336;DHT22;15592;53.656;7.276;2023-03-14T10:40:40;4.60;99.90
28336;DHT22;15592;53.656;7.276;2023-03-14T10:43:12;4.50;99.90
28336;DHT22;15592;53.656;7.276;2023-03-14T10:45:40;4.60;99.90
28336;DHT22;15592;53.656;7.276;2023-03-14T10:48:23;4.70;99.90
28336;DHT22;15592;53.656;7.276;2023-03-14T10:53:46;4.90;99.90
28336;DHT22;15592;53.656;7.276;2023-03-14T10:56:17;5.00;99.90
28336;DHT22;15592;53.656;7.276;2023-03-14T10:58:45;5.20;99.90
28336;DHT22;15592;53.656;7.276;2023-03-14T11:06:48;5.50;99.90
28336;DHT22;15592;53.656;7.276;2023-03-14T11:09:21;5.50;99.90
28336;DHT22;15592;53.656;7.276;2023-03-14T11:11:49;5.70;99.90
28336;DHT22;15592;53.656;7.276;2023-03-14T11:17:21;6.00;99.90
28336;DHT22;15592;53.656;7.276;2023-03-14T11:20:10;6.10;99.90
28336;DHT22;15592;53.656;7.276;2023-03-14T11:22:50;6.10;99.90
28336;DHT22;15592;53.656;7.276;2023-03-14T11:25:49;5.90;99.90
28336;DHT22;15592;53.656;7.276;2023-03-14T11:28:35;5.80;99.90
28336;DHT22;15592;53.656;7.276;2023-03-14T11:31:17;5.90;99.90
28336;DHT22;15592;53.656;7.276;2023-03-14T11:36:59;6.00;99.90
28336;DHT22;15592;53.656;7.276;2023-03-14T11:39:29;5.90;99.90
28336;DHT22;15592;53.656;7.276;2023-03-14T11:41:57;5.90;99.90
28336;DHT22;15592;53.656;7.276;2023-03-14T11:44:31;6.00;99.90
28336;DHT22;15592;53.656;7.276;2023-03-14T11:49:43;6.30;99.90
28336;DHT22;15592;53.656;7.276;2023-03-14T11:55:10;6.40;99.90
28336;DHT22;15592;53.656;7.276;2023-03-14T11:57:39;6.40;99.90
28336;DHT22;15592;53.656;7.276;2023-03-14T12:06:12;6.20;99.90
28336;DHT22;15592;53.656;7.276;2023-03-14T12:08:45;6.00;99.90
28336;DHT22;15592;53.656;7.276;2023-03-14T12:11:34;6.00;99.90
28336;DHT22;15592;53.656;7.276;2023-03-14T12:14:01;5.90;99.90
28336;DHT22;15592;53.656;7.276;2023-03-14T12:16:33;5.90;99.90
28336;DHT22;15592;53.656;7.276;2023-03-14T12:24:31;6.30;99.90
28336;DHT22;15592;53.656;7.276;2023-03-14T12:27:02;6.40;99.90
28336;DHT22;15592;53.656;7.276;2023-03-14T12:29:28;6.30;99.90
28336;DHT22;15592;53.656;7.276;2023-03-14T12:34:32;6.40;99.90
28336;DHT22;15592;53.656;7.276;2023-03-14T12:40:32;6.30;99.90
28336;DHT22;15592;53.656;7.276;2023-03-14T12:43:01;6.20;99.90
28336;DHT22;15592;53.656;7.276;2023-03-14T12:45:33;6.20;99.90
28336;DHT22;15592;53.656;7.276;2023-03-14T12:50:55;6.10;99.90
28336;DHT22;15592;53.656;7.276;2023-03-14T12:53:47;6.10;99.90
28336;DHT22;15592;53.656;7.276;2023-03-14T12:56:42;5.90;99.90
28336;DHT22;15592;53.656;7.276;2023-03-14T13:01:52;5.70;99.90
28336;DHT22;15592;53.656;7.276;2023-03-14T13:04:18;5.80;99.90
28336;DHT22;15592;53.656;7.276;2023-03-14T13:06:48;5.80;99.90
28336;DHT22;15592;53.656;7.276;2023-03-14T13:12:11;5.90;99.90
28336;DHT22;15592;53.656;7.276;2023-03-14T13:14:46;5.80;99.90
28336;DHT22;15592;53.656;7.276;2023-03-14T13:17:14;5.70;99.90
28336;DHT22;15592;53.656;7.276;2023-03-14T13:19:41;5.70;99.90
28336;DHT22;15592;53.656;7.276;2023-03-14T13:22:24;5.70;99.90
28336;DHT22;15592;53.656;7.276;2023-03-14T13:25:02;5.70;99.90
28336;DHT22;15592;53.656;7.276;2023-03-14T13:27:30;5.80;99.90
28336;DHT22;15592;53.656;7.276;2023-03-14T13:29:57;5.80;99.90
28336;DHT22;15592;53.656;7.276;2023-03-14T13:32:27;5.80;99.90
28336;DHT22;15592;53.656;7.276;2023-03-14T13:34:56;5.90;99.90
28336;DHT22;15592;53.656;7.276;2023-03-14T13:37:23;6.10;99.90
28336;DHT22;15592;53.656;7.276;2023-03-14T13:39:54;6.20;99.90
28336;DHT22;15592;53.656;7.276;2023-03-14T13:42:28;6.30;99.90
28336;DHT22;15592;53.656;7.276;2023-03-14T13:44:55;6.40;99.90
28336;DHT22;15592;53.656;7.276;2023-03-14T13:47:23;6.40;99.90
28336;DHT22;15592;53.656;7.276;2023-03-14T13:49:50;6.30;99.90
28336;DHT22;15592;53.656;7.276;2023-03-14T13:52:37;6.20;99.90
28336;DHT22;15592;53.656;7.276;2023-03-14T13:55:05;6.20;99.90
28336;DHT22;15592;53.656;7.276;2023-03-14T14:00:21;6.20;99.90
28336;DHT22;15592;53.656;7.276;2023-03-14T14:02:48;6.20;99.90
28336;DHT22;15592;53.656;7.276;2023-03-14T14:05:14;6.20;99.90
28336;DHT22;15592;53.656;7.276;2023-03-14T14:07:42;6.20;99.90
28336;DHT22;15592;53.656;7.276;2023-03-14T14:10:11;6.20;99.90
28336;DHT22;15592;53.656;7.276;2023-03-14T14:15:21;6.20;99.90
28336;DHT22;15592;53.656;7.276;2023-03-14T14:18:07;6.00;99.90
28336;DHT22;15592;53.656;7.276;2023-03-14T14:20:41;6.00;99.90
28336;DHT22;15592;53.656;7.276;2023-03-14T14:23:14;5.90;99.90
28336;DHT22;15592;53.656;7.276;2023-03-14T14:25:43;5.70;99.90
28336;DHT22;15592;53.656;7.276;2023-03-14T14:28:32;5.30;99.90
28336;DHT22;15592;53.656;7.276;2023-03-14T14:33:59;5.20;99.90
28336;DHT22;15592;53.656;7.276;2023-03-14T14:36:31;5.30;99.90
28336;DHT22;15592;53.656;7.276;2023-03-14T14:39:00;5.50;99.90
28336;DHT22;15592;53.656;7.276;2023-03-14T14:41:31;5.60;99.90
28336;DHT22;15592;53.656;7.276;2023-03-14T14:43:58;5.80;99.90
28336;DHT22;15592;53.656;7.276;2023-03-14T14:46:26;5.80;99.90
28336;DHT22;15592;53.656;7.276;2023-03-14T14:48:56;5.80;99.90
28336;DHT22;15592;53.656;7.276;2023-03-14T14:51:25;5.80;99.90
28336;DHT22;15592;53.656;7.276;2023-03-14T14:54:09;5.90;99.90
28336;DHT22;15592;53.656;7.276;2023-03-14T14:56:37;5.90;99.90
28336;DHT22;15592;53.656;7.276;2023-03-14T14:59:04;5.90;99.90
28336;DHT22;15592;53.656;7.276;2023-03-14T15:01:39;5.90;99.90
28336;DHT22;15592;53.656;7.276;2023-03-14T15:04:14;5.80;99.90
28336;DHT22;15592;53.656;7.276;2023-03-14T15:06:45;5.80;99.90
28336;DHT22;15592;53.656;7.276;2023-03-14T15:09:11;5.30;99.90
28336;DHT22;15592;53.656;7.276;2023-03-14T15:11:37;4.30;99.90
28336;DHT22;15592;53.656;7.276;2023-03-14T15:14:03;4.30;99.90
28336;DHT22;15592;53.656;7.276;2023-03-14T15:16:34;4.10;99.90
28336;DHT22;15592;53.656;7.276;2023-03-14T15:29:23;4.90;99.90
28336;DHT22;15592;53.656;7.276;2023-03-14T15:31:57;5.00;99.90
28336;DHT22;15592;53.656;7.276;2023-03-14T15:37:30;5.00;99.90
28336;DHT22;15592;53.656;7.276;2023-03-14T15:43:54;4.90;99.90
28336;DHT22;15592;53.656;7.276;2023-03-14T15:46:28;4.90;99.90
28336;DHT22;15592;53.656;7.276;2023-03-14T15:48:54;4.90;99.90
28336;DHT22;15592;53.656;7.276;2023-03-14T15:51:20;4.90;99.90
28336;DHT22;15592;53.656;7.276;2023-03-14T15:53:45;5.00;99.90
28336;DHT22;15592;53.656;7.276;2023-03-14T15:56:16;5.00;99.90
28336;DHT22;15592;53.656;7.276;2023-03-14T15:58:43;5.10;99.90
28336;DHT22;15592;53.656;7.276;2023-03-14T16:01:12;5.10;99.90
28336;DHT22;15592;53.656;7.276;2023-03-14T16:03:38;5.10;99.90
28336;DHT22;15592;53.656;7.276;2023-03-14T16:06:05;4.80;99.90
28336;DHT22;15592;53.656;7.276;2023-03-14T16:08:30;4.20;99.90
28336;DHT22;15592;53.656;7.276;2023-03-14T16:10:58;4.10;99.90
28336;DHT22;15592;53.656;7.276;2023-03-14T16:13:24;3.80;99.90
28336;DHT22;15592;53.656;7.276;2023-03-14T16:16:01;3.70;99.90
28336;DHT22;15592;53.656;7.276;2023-03-14T16:18:29;3.80;99.90
28336;DHT22;15592;53.656;7.276;2023-03-14T16:20:57;4.00;99.90
28336;DHT22;15592;53.656;7.276;2023-03-14T16:23:23;4.20;99.90
28336;DHT22;15592;53.656;7.276;2023-03-14T16:25:49;4.30;99.90
28336;DHT22;15592;53.656;7.276;2023-03-14T16:28:15;4.40;99.90
28336;DHT22;15592;53.656;7.276;2023-03-14T16:30:43;4.50;99.90
28336;DHT22;15592;53.656;7.276;2023-03-14T16:33:09;4.50;99.90
28336;DHT22;15592;53.656;7.276;2023-03-14T16:35:40;4.50;99.90
28336;DHT22;15592;53.656;7.276;2023-03-14T16:38:36;4.40;99.90
28336;DHT22;15592;53.656;7.276;2023-03-14T16:41:09;4.40;99.90
28336;DHT22;15592;53.656;7.276;2023-03-14T16:43:35;4.30;99.90
28336;DHT22;15592;53.656;7.276;2023-03-14T16:46:10;4.30;99.90
28336;DHT22;15592;53.656;7.276;2023-03-14T16:48:36;4.30;99.90
28336;DHT22;15592;53.656;7.276;2023-03-14T16:51:05;4.30;99.90
28336;DHT22;15592;53.656;7.276;2023-03-14T16:53:31;4.30;99.90
28336;DHT22;15592;53.656;7.276;2023-03-14T16:55:57;4.20;99.90
28336;DHT22;15592;53.656;7.276;2023-03-14T16:58:23;4.20;99.90
28336;DHT22;15592;53.656;7.276;2023-03-14T17:01:08;4.10;99.90
28336;DHT22;15592;53.656;7.276;2023-03-14T17:03:55;4.10;99.90
28336;DHT22;15592;53.656;7.276;2023-03-14T17:06:40;4.20;99.90
28336;DHT22;15592;53.656;7.276;2023-03-14T17:09:15;4.10;99.90
28336;DHT22;15592;53.656;7.276;2023-03-14T17:16:16;4.00;99.90
28336;DHT22;15592;53.656;7.276;2023-03-14T17:19:08;3.90;99.90
28336;DHT22;15592;53.656;7.276;2023-03-14T17:28:41;4.00;99.90
28336;DHT22;15592;53.656;7.276;2023-03-14T17:31:12;3.90;99.90
28336;DHT22;15592;53.656;7.276;2023-03-14T17:33:38;3.90;99.90
28336;DHT22;15592;53.656;7.276;2023-03-14T17:36:04;3.90;99.90
28336;DHT22;15592;53.656;7.276;2023-03-14T17:38:31;3.90;99.90
28336;DHT22;15592;53.656;7.276;2023-03-14T17:40:57;4.00;99.90
28336;DHT22;15592;53.656;7.276;2023-03-14T17:43:22;4.00;99.90